Terminal Aerodrome Forecast
Issued by NWS

Home | Current Version | Previous Version | Text Only | Print | Product List | Glossary On
Versions: 1 2 3 4 5 6 7 8 9 10 11 12 13 14
000
FTUS43 KMQT 021734
TAFCMX
TAF
KCMX 021734Z 0218/0318 27008KT P6SM FEW110
     FM030600 24006KT P6SM SCT100
     FM031000 25010KT P6SM SCT120
     FM031600 26015G20KT P6SM SCT110=

USA.gov is the U.S. government's official web portal to all federal, state and local government web resources and services.